Time,TemperatureF,DewpointF,PressureIn,WindDirection,WindDirectionDegrees,WindSpeedMPH,WindSpeedGustMPH,Humidity,HourlyPrecipIn,Conditions,Clouds,dailyrainin,SoftwareType,DateUTC
2013-06-15 00:01:00,45.7,42.4,29.83,SSW,211,0.0,0.0,88,0.00,,,0.00,LWC V2.00 B2112,2013-06-15 07:01:00,
2013-06-15 00:06:00,45.6,42.3,29.83,SSW,211,0.0,0.0,88,0.00,,,0.00,LWC V2.00 B2112,2013-06-15 07:06:00,
2013-06-15 00:11:00,45.6,42.3,29.83,SSW,211,0.0,0.0,88,0.00,,,0.00,LWC V2.00 B2112,2013-06-15 07:11:00,
2013-06-15 00:16:00,45.6,42.5,29.83,SSW,211,0.0,0.0,89,0.00,,,0.00,LWC V2.00 B2112,2013-06-15 07:16:00,
2013-06-15 00:22:00,45.5,42.4,29.83,SSW,211,0.0,0.0,89,0.00,,,0.00,LWC V2.00 B2112,2013-06-15 07:22:00,
2013-06-15 00:27:00,45.3,42.3,29.82,SSW,211,0.0,0.0,89,0.00,,,0.00,LWC V2.00 B2112,2013-06-15 07:27:00,
2013-06-15 00:32:00,45.2,42.2,29.82,SSW,211,0.0,0.0,89,0.00,,,0.00,LWC V2.00 B2112,2013-06-15 07:32:00,
2013-06-15 00:37:00,45.1,42.1,29.83,SSW,212,0.0,0.0,89,0.00,,,0.00,LWC V2.00 B2112,2013-06-15 07:37:00,
2013-06-15 00:42:00,45.0,42.0,29.82,SSW,211,0.0,0.0,89,0.00,,,0.00,LWC V2.00 B2112,2013-06-15 07:42:00,
2013-06-15 00:47:00,44.8,41.8,29.82,SSW,211,0.0,0.0,89,0.00,,,0.00,LWC V2.00 B2112,2013-06-15 07:47:00,
2013-06-15 00:52:00,44.6,41.6,29.82,SSW,211,0.0,0.0,89,0.00,,,0.00,LWC V2.00 B2112,2013-06-15 07:52:00,
2013-06-15 00:57:00,44.5,41.5,29.82,SSW,211,0.0,0.0,89,0.00,,,0.00,LWC V2.00 B2112,2013-06-15 07:57:00,
2013-06-15 01:02:00,44.5,41.5,29.82,SSW,212,0.0,0.0,89,0.00,,,0.00,LWC V2.00 B2112,2013-06-15 08:02:00,
2013-06-15 01:07:00,44.4,41.4,29.82,SSW,211,0.0,0.0,89,0.00,,,0.00,LWC V2.00 B2112,2013-06-15 08:07:00,
2013-06-15 01:10:00,44.5,41.5,29.82,SSW,202,0.0,1.0,89,0.00,,,0.00,LWC V2.00 B2112,2013-06-15 08:10:00,
2013-06-15 01:20:00,44.5,41.5,29.82,SSW,202,0.0,1.0,89,0.00,,,0.00,LWC V2.00 B2112,2013-06-15 08:20:00,
2013-06-15 01:30:00,43.8,40.8,29.82,North,0,0.0,0.0,89,0.00,,,0.00,LWC V2.00 B2112,2013-06-15 08:30:00,
2013-06-15 01:40:00,43.8,40.8,29.82,North,0,0.0,0.0,89,0.00,,,0.00,LWC V2.00 B2112,2013-06-15 08:40:00,
2013-06-15 01:50:00,43.8,40.8,29.82,North,0,0.0,0.0,89,0.00,,,0.00,LWC V2.00 B2112,2013-06-15 08:50:00,
2013-06-15 02:00:00,43.9,41.2,29.81,North,0,0.0,0.0,90,0.00,,,0.00,LWC V2.00 B2112,2013-06-15 09:00:00,
2013-06-15 02:10:00,43.9,41.2,29.81,North,0,0.0,0.0,90,0.00,,,0.00,LWC V2.00 B2112,2013-06-15 09:10:00,
2013-06-15 02:20:00,43.9,41.2,29.81,North,0,0.0,0.0,90,0.00,,,0.00,LWC V2.00 B2112,2013-06-15 09:20:00,
2013-06-15 02:30:00,44.0,41.3,29.81,North,0,0.0,0.0,90,0.00,,,0.00,LWC V2.00 B2112,2013-06-15 09:30:00,
2013-06-15 02:40:00,44.0,41.3,29.81,North,0,0.0,0.0,90,0.00,,,0.00,LWC V2.00 B2112,2013-06-15 09:40:00,
2013-06-15 02:50:00,44.0,41.3,29.81,North,0,0.0,0.0,90,0.00,,,0.00,LWC V2.00 B2112,2013-06-15 09:50:00,
2013-06-15 03:00:00,44.0,41.3,29.81,North,0,0.0,0.0,90,0.00,,,0.00,LWC V2.00 B2112,2013-06-15 10:00:00,
2013-06-15 03:10:00,44.6,41.8,29.81,SW,225,0.0,1.0,90,0.00,,,0.00,LWC V2.00 B2112,2013-06-15 10:10:00,
2013-06-15 03:20:00,44.6,41.8,29.81,SW,225,0.0,1.0,90,0.00,,,0.00,LWC V2.00 B2112,2013-06-15 10:20:00,
2013-06-15 03:30:00,44.6,41.8,29.81,SW,225,0.0,1.0,90,0.00,,,0.00,LWC V2.00 B2112,2013-06-15 10:30:00,
2013-06-15 03:40:00,45.9,43.1,29.81,North,0,0.0,0.0,90,0.00,,,0.00,LWC V2.00 B2112,2013-06-15 10:40:00,
2013-06-15 03:50:00,45.9,43.1,29.81,North,0,0.0,0.0,90,0.00,,,0.00,LWC V2.00 B2112,2013-06-15 10:50:00,
2013-06-15 04:00:00,45.9,43.1,29.81,North,0,0.0,0.0,90,0.00,,,0.00,LWC V2.00 B2112,2013-06-15 11:00:00,
2013-06-15 04:10:00,47.0,44.2,29.81,SW,225,0.0,1.0,90,0.00,,,0.00,LWC V2.00 B2112,2013-06-15 11:10:00,
2013-06-15 04:20:00,47.0,44.2,29.81,SW,225,0.0,1.0,90,0.00,,,0.00,LWC V2.00 B2112,2013-06-15 11:20:00,
2013-06-15 04:30:00,47.0,44.2,29.81,SW,225,0.0,1.0,90,0.00,,,0.00,LWC V2.00 B2112,2013-06-15 11:30:00,
2013-06-15 04:40:00,48.6,45.8,29.81,SW,225,0.0,1.0,90,0.00,,,0.00,LWC V2.00 B2112,2013-06-15 11:40:00,
2013-06-15 04:50:00,48.6,45.8,29.81,SW,225,0.0,1.0,90,0.00,,,0.00,LWC V2.00 B2112,2013-06-15 11:50:00,
2013-06-15 05:00:00,48.6,45.8,29.81,SW,225,0.0,1.0,90,0.00,,,0.00,LWC V2.00 B2112,2013-06-15 12:00:00,
2013-06-15 05:10:00,48.3,45.5,29.81,SW,225,0.0,1.0,90,0.00,,,0.00,LWC V2.00 B2112,2013-06-15 12:10:00,
2013-06-15 05:20:00,48.3,45.5,29.81,SW,225,0.0,1.0,90,0.00,,,0.00,LWC V2.00 B2112,2013-06-15 12:20:00,
2013-06-15 05:30:00,48.3,45.5,29.81,SW,225,0.0,1.0,90,0.00,,,0.00,LWC V2.00 B2112,2013-06-15 12:30:00,
2013-06-15 05:40:00,48.2,45.4,29.82,North,0,0.0,0.0,90,0.00,,,0.00,LWC V2.00 B2112,2013-06-15 12:40:00,
2013-06-15 05:50:00,48.2,45.4,29.82,North,0,0.0,0.0,90,0.00,,,0.00,LWC V2.00 B2112,2013-06-15 12:50:00,
2013-06-15 06:00:00,48.2,45.4,29.82,North,0,0.0,0.0,90,0.00,,,0.00,LWC V2.00 B2112,2013-06-15 13:00:00,
2013-06-15 06:10:00,47.6,44.8,29.83,SW,225,0.0,1.0,90,0.00,,,0.00,LWC V2.00 B2112,2013-06-15 13:10:00,
2013-06-15 06:20:00,47.6,44.8,29.83,SW,225,0.0,1.0,90,0.00,,,0.00,LWC V2.00 B2112,2013-06-15 13:20:00,
2013-06-15 06:30:00,47.6,44.8,29.83,SW,225,0.0,1.0,90,0.00,,,0.00,LWC V2.00 B2112,2013-06-15 13:30:00,
2013-06-15 06:40:00,48.4,45.6,29.84,SW,225,0.0,1.0,90,0.00,,,0.00,LWC V2.00 B2112,2013-06-15 13:40:00,
2013-06-15 06:50:00,48.4,45.6,29.84,SW,225,0.0,1.0,90,0.00,,,0.00,LWC V2.00 B2112,2013-06-15 13:50:00,
2013-06-15 07:00:00,48.4,45.6,29.84,SW,225,0.0,1.0,90,0.00,,,0.00,LWC V2.00 B2112,2013-06-15 14:00:00,
2013-06-15 07:10:00,49.3,46.5,29.84,SW,225,0.0,1.0,90,0.00,,,0.00,LWC V2.00 B2112,2013-06-15 14:10:00,
2013-06-15 07:20:00,49.3,46.5,29.84,SW,225,0.0,1.0,90,0.00,,,0.00,LWC V2.00 B2112,2013-06-15 14:20:00,
2013-06-15 07:30:00,49.3,46.5,29.84,SW,225,0.0,1.0,90,0.00,,,0.00,LWC V2.00 B2112,2013-06-15 14:30:00,
2013-06-15 07:40:00,50.2,47.4,29.85,SW,225,0.0,1.0,90,0.00,,,0.00,LWC V2.00 B2112,2013-06-15 14:40:00,
2013-06-15 07:50:00,50.2,47.4,29.85,SW,225,0.0,1.0,90,0.00,,,0.00,LWC V2.00 B2112,2013-06-15 14:50:00,
2013-06-15 08:00:00,50.2,47.4,29.85,SW,225,0.0,1.0,90,0.00,,,0.00,LWC V2.00 B2112,2013-06-15 15:00:00,
2013-06-15 08:10:00,51.3,48.2,29.86,East,90,0.0,2.0,89,0.00,,,0.00,LWC V2.00 B2112,2013-06-15 15:10:00,
2013-06-15 08:20:00,51.3,48.2,29.86,East,90,0.0,2.0,89,0.00,,,0.00,LWC V2.00 B2112,2013-06-15 15:20:00,
2013-06-15 08:39:00,55.9,51.8,29.86,ESE,110,0.0,1.0,86,0.00,,,0.00,LWC V2.00 B2112,2013-06-15 15:39:00,
2013-06-15 08:44:00,57.0,51.9,29.87,ENE,78,0.0,2.0,83,0.00,,,0.00,LWC V2.00 B2112,2013-06-15 15:44:00,
2013-06-15 08:49:00,57.8,51.7,29.87,ESE,110,3.0,4.0,80,0.00,,,0.00,LWC V2.00 B2112,2013-06-15 15:49:00,
2013-06-15 08:54:00,57.4,51.6,29.87,NNW,328,0.0,3.0,81,0.00,,,0.00,LWC V2.00 B2112,2013-06-15 15:54:00,
2013-06-15 08:59:00,58.1,52.0,29.87,ESE,110,2.0,3.0,80,0.00,,,0.00,LWC V2.00 B2112,2013-06-15 15:59:00,
2013-06-15 09:04:00,58.3,52.2,29.87,NNW,329,0.0,1.0,80,0.00,,,0.00,LWC V2.00 B2112,2013-06-15 16:04:00,
2013-06-15 09:09:00,59.1,52.6,29.87,East,98,2.0,2.0,79,0.00,,,0.00,LWC V2.00 B2112,2013-06-15 16:09:00,
2013-06-15 09:14:00,59.4,52.5,29.87,East,86,0.0,1.0,78,0.00,,,0.00,LWC V2.00 B2112,2013-06-15 16:14:00,
2013-06-15 09:19:00,60.3,53.4,29.87,WNW,302,0.0,0.0,78,0.00,,,0.00,LWC V2.00 B2112,2013-06-15 16:19:00,
2013-06-15 09:24:00,60.8,52.8,29.87,ENE,67,2.0,4.0,75,0.00,,,0.00,LWC V2.00 B2112,2013-06-15 16:24:00,
2013-06-15 09:29:00,60.1,52.5,29.88,East,84,0.0,2.0,76,0.00,,,0.00,LWC V2.00 B2112,2013-06-15 16:29:00,
2013-06-15 09:34:00,60.7,53.4,29.88,NW,315,0.0,1.0,77,0.00,,,0.00,LWC V2.00 B2112,2013-06-15 16:34:00,
2013-06-15 09:39:00,61.3,54.0,29.88,WSW,238,0.0,0.0,77,0.00,,,0.00,LWC V2.00 B2112,2013-06-15 16:39:00,
2013-06-15 09:44:00,61.6,53.6,29.88,SE,143,1.0,2.0,75,0.00,,,0.00,LWC V2.00 B2112,2013-06-15 16:44:00,
2013-06-15 09:49:00,61.4,53.0,29.88,East,99,0.0,2.0,74,0.00,,,0.00,LWC V2.00 B2112,2013-06-15 16:49:00,
2013-06-15 09:54:00,61.5,52.8,29.88,East,91,1.0,1.0,73,0.00,,,0.00,LWC V2.00 B2112,2013-06-15 16:54:00,
2013-06-15 09:59:00,62.2,53.8,29.88,ENE,74,0.0,0.0,74,0.00,,,0.00,LWC V2.00 B2112,2013-06-15 16:59:00,
2013-06-15 10:04:00,63.1,54.3,29.88,NW,304,0.0,2.0,73,0.00,,,0.00,LWC V2.00 B2112,2013-06-15 17:04:00,
2013-06-15 10:09:00,64.0,54.4,29.88,ESE,107,0.0,1.0,71,0.00,,,0.00,LWC V2.00 B2112,2013-06-15 17:09:00,
2013-06-15 10:14:00,63.7,54.1,29.88,East,99,0.0,0.0,71,0.00,,,0.00,LWC V2.00 B2112,2013-06-15 17:14:00,
2013-06-15 10:19:00,64.4,53.6,29.88,ENE,78,1.0,3.0,68,0.00,,,0.00,LWC V2.00 B2112,2013-06-15 17:19:00,
2013-06-15 10:24:00,64.0,54.0,29.88,East,84,2.0,2.0,70,0.00,,,0.00,LWC V2.00 B2112,2013-06-15 17:24:00,
2013-06-15 10:29:00,64.2,55.0,29.88,East,89,0.0,1.0,72,0.00,,,0.00,LWC V2.00 B2112,2013-06-15 17:29:00,
2013-06-15 10:34:00,65.4,55.0,29.88,East,85,1.0,2.0,69,0.00,,,0.00,LWC V2.00 B2112,2013-06-15 17:34:00,
2013-06-15 10:39:00,65.9,55.0,29.88,SE,141,0.0,2.0,68,0.00,,,0.00,LWC V2.00 B2112,2013-06-15 17:39:00,
2013-06-15 10:44:00,66.1,55.2,29.88,NW,317,0.0,1.0,68,0.00,,,0.00,LWC V2.00 B2112,2013-06-15 17:44:00,
2013-06-15 10:49:00,66.0,55.1,29.88,WSW,246,1.0,3.0,68,0.00,,,0.00,LWC V2.00 B2112,2013-06-15 17:49:00,
2013-06-15 10:54:00,65.7,55.2,29.88,NE,49,1.0,3.0,69,0.00,,,0.00,LWC V2.00 B2112,2013-06-15 17:54:00,
2013-06-15 10:59:00,65.3,55.3,29.88,SSE,162,1.0,2.0,70,0.00,,,0.00,LWC V2.00 B2112,2013-06-15 17:59:00,
2013-06-15 11:04:00,65.3,54.9,29.88,South,187,1.0,4.0,69,0.00,,,0.00,LWC V2.00 B2112,2013-06-15 18:04:00,
2013-06-15 11:09:00,65.0,55.4,29.88,SE,124,0.0,2.0,71,0.00,,,0.00,LWC V2.00 B2112,2013-06-15 18:09:00,
2013-06-15 11:14:00,65.0,55.4,29.88,SE,133,1.0,2.0,71,0.00,,,0.00,LWC V2.00 B2112,2013-06-15 18:14:00,
2013-06-15 11:19:00,64.9,55.3,29.88,ESE,105,1.0,4.0,71,0.00,,,0.00,LWC V2.00 B2112,2013-06-15 18:19:00,
2013-06-15 11:24:00,65.4,55.4,29.88,East,91,4.0,4.0,70,0.00,,,0.00,LWC V2.00 B2112,2013-06-15 18:24:00,
2013-06-15 11:29:00,65.1,54.7,29.88,East,85,5.0,6.0,69,0.00,,,0.00,LWC V2.00 B2112,2013-06-15 18:29:00,
2013-06-15 11:34:00,65.9,55.4,29.88,SW,226,1.0,3.0,69,0.00,,,0.00,LWC V2.00 B2112,2013-06-15 18:34:00,
2013-06-15 11:39:00,67.1,55.4,29.89,NE,46,1.0,5.0,66,0.00,,,0.00,LWC V2.00 B2112,2013-06-15 18:39:00,
2013-06-15 11:44:00,67.4,54.8,29.88,NW,325,3.0,3.0,64,0.00,,,0.00,LWC V2.00 B2112,2013-06-15 18:44:00,
2013-06-15 11:49:00,67.1,54.9,29.88,SW,233,1.0,3.0,65,0.00,,,0.00,LWC V2.00 B2112,2013-06-15 18:49:00,
2013-06-15 11:54:00,66.8,54.6,29.89,NE,39,1.0,5.0,65,0.00,,,0.00,LWC V2.00 B2112,2013-06-15 18:54:00,
2013-06-15 11:59:00,66.0,53.5,29.89,NNE,19,3.0,4.0,64,0.00,,,0.00,LWC V2.00 B2112,2013-06-15 18:59:00,
2013-06-15 12:04:00,64.5,53.7,29.89,West,271,3.0,8.0,68,0.00,,,0.00,LWC V2.00 B2112,2013-06-15 19:04:00,
2013-06-15 12:09:00,64.1,53.3,29.90,West,281,1.0,7.0,68,0.00,,,0.00,LWC V2.00 B2112,2013-06-15 19:09:00,
2013-06-15 12:14:00,64.1,53.3,29.90,North,355,3.0,6.0,68,0.00,,,0.00,LWC V2.00 B2112,2013-06-15 19:14:00,
2013-06-15 12:19:00,63.5,53.1,29.90,West,267,4.0,6.0,69,0.00,,,0.00,LWC V2.00 B2112,2013-06-15 19:19:00,
2013-06-15 12:24:00,62.9,53.3,29.90,NW,318,3.0,8.0,71,0.00,,,0.00,LWC V2.00 B2112,2013-06-15 19:24:00,
2013-06-15 12:29:00,63.0,53.8,29.90,North,1,2.0,6.0,72,0.00,,,0.00,LWC V2.00 B2112,2013-06-15 19:29:00,
2013-06-15 12:34:00,62.8,53.3,29.90,WSW,257,2.0,3.0,71,0.00,,,0.00,LWC V2.00 B2112,2013-06-15 19:34:00,
2013-06-15 12:39:00,63.2,53.6,29.90,SW,226,2.0,7.0,71,0.00,,,0.00,LWC V2.00 B2112,2013-06-15 19:39:00,
2013-06-15 12:44:00,63.5,53.1,29.91,NNE,20,2.0,5.0,69,0.00,,,0.00,LWC V2.00 B2112,2013-06-15 19:44:00,
2013-06-15 12:49:00,63.2,53.6,29.91,West,276,3.0,7.0,71,0.00,,,0.00,LWC V2.00 B2112,2013-06-15 19:49:00,
2013-06-15 12:54:00,62.9,53.3,29.91,NNW,335,1.0,7.0,71,0.00,,,0.00,LWC V2.00 B2112,2013-06-15 19:54:00,
2013-06-15 12:59:00,62.8,53.6,29.91,NNW,333,4.0,4.0,72,0.00,,,0.00,LWC V2.00 B2112,2013-06-15 19:59:00,
2013-06-15 13:04:00,62.8,53.3,29.91,North,356,2.0,3.0,71,0.00,,,0.00,LWC V2.00 B2112,2013-06-15 20:04:00,
2013-06-15 13:09:00,63.0,53.4,29.91,NNW,333,3.0,6.0,71,0.00,,,0.00,LWC V2.00 B2112,2013-06-15 20:09:00,
2013-06-15 13:14:00,62.9,53.7,29.91,ENE,60,0.0,3.0,72,0.00,,,0.00,LWC V2.00 B2112,2013-06-15 20:14:00,
2013-06-15 13:19:00,62.2,53.1,29.92,ESE,116,1.0,4.0,72,0.00,,,0.00,LWC V2.00 B2112,2013-06-15 20:19:00,
2013-06-15 13:24:00,62.7,53.5,29.92,East,82,1.0,4.0,72,0.00,,,0.00,LWC V2.00 B2112,2013-06-15 20:24:00,
2013-06-15 13:29:00,62.6,53.4,29.92,SSW,201,4.0,6.0,72,0.00,,,0.00,LWC V2.00 B2112,2013-06-15 20:29:00,
2013-06-15 13:34:00,62.0,52.9,29.91,WNW,296,1.0,5.0,72,0.00,,,0.00,LWC V2.00 B2112,2013-06-15 20:34:00,
2013-06-15 13:39:00,61.6,53.2,29.92,SSE,165,1.0,3.0,74,0.00,,,0.00,LWC V2.00 B2112,2013-06-15 20:39:00,
2013-06-15 13:44:00,62.0,53.6,29.92,NE,44,2.0,4.0,74,0.00,,,0.00,LWC V2.00 B2112,2013-06-15 20:44:00,
2013-06-15 13:49:00,61.8,53.0,29.92,SW,225,2.0,6.0,73,0.00,,,0.00,LWC V2.00 B2112,2013-06-15 20:49:00,
2013-06-15 13:54:00,61.1,52.7,29.92,South,182,1.0,2.0,74,0.00,,,0.00,LWC V2.00 B2112,2013-06-15 20:54:00,
2013-06-15 13:59:00,61.0,52.6,29.92,SSE,166,1.0,6.0,74,0.00,,,0.00,LWC V2.00 B2112,2013-06-15 20:59:00,
2013-06-15 14:04:00,61.1,53.1,29.93,South,191,2.0,7.0,75,0.00,,,0.00,LWC V2.00 B2112,2013-06-15 21:04:00,
2013-06-15 14:09:00,61.1,52.7,29.92,SE,139,1.0,8.0,74,0.00,,,0.00,LWC V2.00 B2112,2013-06-15 21:09:00,
2013-06-15 14:14:00,60.9,52.9,29.93,West,262,3.0,5.0,75,0.00,,,0.00,LWC V2.00 B2112,2013-06-15 21:14:00,
2013-06-15 14:19:00,61.0,53.4,29.93,North,5,1.0,2.0,76,0.00,,,0.00,LWC V2.00 B2112,2013-06-15 21:19:00,
2013-06-15 14:24:00,60.9,52.6,29.93,ENE,65,1.0,4.0,74,0.00,,,0.00,LWC V2.00 B2112,2013-06-15 21:24:00,
2013-06-15 14:29:00,60.7,52.7,29.93,South,169,1.0,4.0,75,0.00,,,0.00,LWC V2.00 B2112,2013-06-15 21:29:00,
2013-06-15 14:34:00,60.2,52.2,29.93,NNE,29,2.0,5.0,75,0.00,,,0.00,LWC V2.00 B2112,2013-06-15 21:34:00,
2013-06-15 14:39:00,60.7,53.1,29.92,East,88,0.0,3.0,76,0.00,,,0.00,LWC V2.00 B2112,2013-06-15 21:39:00,
2013-06-15 14:44:00,61.2,53.2,29.92,NW,306,2.0,5.0,75,0.00,,,0.00,LWC V2.00 B2112,2013-06-15 21:44:00,
2013-06-15 14:49:00,61.7,53.7,29.92,North,352,4.0,10.0,75,0.00,,,0.00,LWC V2.00 B2112,2013-06-15 21:49:00,
2013-06-15 14:54:00,61.7,53.7,29.92,SSE,166,2.0,2.0,75,0.00,,,0.00,LWC V2.00 B2112,2013-06-15 21:54:00,
2013-06-15 14:59:00,62.2,53.8,29.92,West,262,1.0,3.0,74,0.00,,,0.00,LWC V2.00 B2112,2013-06-15 21:59:00,
2013-06-15 15:04:00,63.1,54.7,29.92,South,176,1.0,3.0,74,0.00,,,0.00,LWC V2.00 B2112,2013-06-15 22:04:00,
2013-06-15 15:09:00,63.5,53.5,29.92,North,355,4.0,4.0,70,0.00,,,0.00,LWC V2.00 B2112,2013-06-15 22:09:00,
2013-06-15 15:14:00,62.8,53.3,29.92,West,261,1.0,4.0,71,0.00,,,0.00,LWC V2.00 B2112,2013-06-15 22:14:00,
2013-06-15 15:19:00,62.6,53.8,29.92,NE,39,2.0,3.0,73,0.00,,,0.00,LWC V2.00 B2112,2013-06-15 22:19:00,
2013-06-15 15:24:00,62.4,53.6,29.92,WNW,300,3.0,5.0,73,0.00,,,0.00,LWC V2.00 B2112,2013-06-15 22:24:00,
2013-06-15 15:29:00,62.5,53.3,29.92,West,271,2.0,5.0,72,0.00,,,0.00,LWC V2.00 B2112,2013-06-15 22:29:00,
2013-06-15 15:34:00,61.8,52.7,29.92,ESE,110,2.0,6.0,72,0.00,,,0.00,LWC V2.00 B2112,2013-06-15 22:34:00,
2013-06-15 15:39:00,61.5,53.1,29.92,NNW,343,0.0,5.0,74,0.00,,,0.00,LWC V2.00 B2112,2013-06-15 22:39:00,
2013-06-15 15:44:00,61.4,52.7,29.93,NE,47,3.0,5.0,73,0.00,,,0.00,LWC V2.00 B2112,2013-06-15 22:44:00,
2013-06-15 15:49:00,61.1,53.1,29.92,NNE,26,1.0,8.0,75,0.00,,,0.00,LWC V2.00 B2112,2013-06-15 22:49:00,
2013-06-15 15:54:00,61.1,53.1,29.93,East,101,5.0,7.0,75,0.00,,,0.00,LWC V2.00 B2112,2013-06-15 22:54:00,
2013-06-15 15:59:00,60.4,52.4,29.93,NNW,334,0.0,3.0,75,0.00,,,0.00,LWC V2.00 B2112,2013-06-15 22:59:00,
2013-06-15 16:04:00,60.1,52.5,29.93,East,98,3.0,4.0,76,0.00,,,0.00,LWC V2.00 B2112,2013-06-15 23:04:00,
2013-06-15 16:09:00,60.2,53.0,29.93,East,84,2.0,3.0,77,0.00,,,0.00,LWC V2.00 B2112,2013-06-15 23:09:00,
2013-06-15 16:14:00,60.2,52.6,29.92,East,94,1.0,3.0,76,0.00,,,0.00,LWC V2.00 B2112,2013-06-15 23:14:00,
2013-06-15 16:19:00,60.3,52.7,29.92,ENE,61,0.0,2.0,76,0.00,,,0.00,LWC V2.00 B2112,2013-06-15 23:19:00,
2013-06-15 16:24:00,59.9,52.3,29.92,ENE,70,2.0,4.0,76,0.00,,,0.00,LWC V2.00 B2112,2013-06-15 23:24:00,
2013-06-15 16:29:00,59.5,52.3,29.92,SW,221,1.0,4.0,77,0.00,,,0.00,LWC V2.00 B2112,2013-06-15 23:29:00,
2013-06-15 16:34:00,59.5,52.3,29.92,NNW,342,1.0,2.0,77,0.00,,,0.00,LWC V2.00 B2112,2013-06-15 23:34:00,
2013-06-15 16:39:00,59.6,52.4,29.92,NNW,346,0.0,2.0,77,0.00,,,0.00,LWC V2.00 B2112,2013-06-15 23:39:00,
2013-06-15 16:44:00,59.7,52.5,29.92,NE,44,1.0,5.0,77,0.00,,,0.00,LWC V2.00 B2112,2013-06-15 23:44:00,
2013-06-15 16:49:00,59.4,52.2,29.92,East,96,1.0,3.0,77,0.00,,,0.00,LWC V2.00 B2112,2013-06-15 23:49:00,
2013-06-15 16:54:00,59.1,52.2,29.92,ENE,60,2.0,3.0,78,0.00,,,0.00,LWC V2.00 B2112,2013-06-15 23:54:00,
2013-06-15 16:59:00,58.7,52.2,29.92,ESE,106,1.0,5.0,79,0.00,,,0.00,LWC V2.00 B2112,2013-06-15 23:59:00,
2013-06-15 17:04:00,58.5,52.0,29.92,ESE,119,3.0,3.0,79,0.00,,,0.00,LWC V2.00 B2112,2013-06-16 00:04:00,
2013-06-15 17:09:00,58.3,51.8,29.92,East,91,2.0,2.0,79,0.00,,,0.00,LWC V2.00 B2112,2013-06-16 00:09:00,
2013-06-15 17:14:00,58.3,52.2,29.92,North,6,2.0,3.0,80,0.00,,,0.00,LWC V2.00 B2112,2013-06-16 00:14:00,
2013-06-15 17:19:00,58.3,52.2,29.92,WSW,243,0.0,3.0,80,0.00,,,0.00,LWC V2.00 B2112,2013-06-16 00:19:00,
2013-06-15 17:24:00,58.5,52.3,29.92,NNW,329,0.0,2.0,80,0.00,,,0.00,LWC V2.00 B2112,2013-06-16 00:24:00,
2013-06-15 17:29:00,58.9,52.4,29.92,ENE,76,0.0,0.0,79,0.00,,,0.00,LWC V2.00 B2112,2013-06-16 00:29:00,
2013-06-15 17:34:00,58.9,52.4,29.92,East,96,0.0,1.0,79,0.00,,,0.00,LWC V2.00 B2112,2013-06-16 00:34:00,
2013-06-15 17:39:00,58.8,52.3,29.92,East,84,0.0,2.0,79,0.00,,,0.00,LWC V2.00 B2112,2013-06-16 00:39:00,
2013-06-15 17:44:00,58.7,51.9,29.92,East,81,1.0,4.0,78,0.00,,,0.00,LWC V2.00 B2112,2013-06-16 00:44:00,
2013-06-15 17:49:00,58.6,51.8,29.92,ENE,76,0.0,4.0,78,0.00,,,0.00,LWC V2.00 B2112,2013-06-16 00:49:00,
2013-06-15 17:54:00,58.6,51.8,29.92,North,355,0.0,3.0,78,0.00,,,0.00,LWC V2.00 B2112,2013-06-16 00:54:00,
2013-06-15 17:59:00,58.8,52.3,29.92,SW,226,0.0,1.0,79,0.00,,,0.00,LWC V2.00 B2112,2013-06-16 00:59:00,
2013-06-15 18:04:00,58.8,52.3,29.91,ENE,63,4.0,5.0,79,0.00,,,0.00,LWC V2.00 B2112,2013-06-16 01:04:00,
2013-06-15 18:09:00,58.4,51.9,29.91,ESE,115,0.0,6.0,79,0.00,,,0.00,LWC V2.00 B2112,2013-06-16 01:09:00,
2013-06-15 18:14:00,58.6,52.1,29.91,West,271,1.0,2.0,79,0.00,,,0.00,LWC V2.00 B2112,2013-06-16 01:14:00,
2013-06-15 18:19:00,58.4,51.9,29.91,ESE,110,5.0,5.0,79,0.00,,,0.00,LWC V2.00 B2112,2013-06-16 01:19:00,
2013-06-15 18:24:00,58.5,52.0,29.91,SSE,153,0.0,2.0,79,0.00,,,0.00,LWC V2.00 B2112,2013-06-16 01:24:00,
2013-06-15 18:29:00,59.0,52.1,29.91,North,11,1.0,3.0,78,0.00,,,0.00,LWC V2.00 B2112,2013-06-16 01:29:00,
2013-06-15 18:34:00,59.2,52.3,29.91,SE,127,2.0,3.0,78,0.00,,,0.00,LWC V2.00 B2112,2013-06-16 01:34:00,
2013-06-15 18:39:00,59.1,51.9,29.91,WNW,283,1.0,3.0,77,0.00,,,0.00,LWC V2.00 B2112,2013-06-16 01:39:00,
2013-06-15 18:44:00,59.1,51.9,29.91,ESE,107,1.0,3.0,77,0.00,,,0.00,LWC V2.00 B2112,2013-06-16 01:44:00,
2013-06-15 18:49:00,58.8,52.0,29.91,West,259,2.0,3.0,78,0.00,,,0.00,LWC V2.00 B2112,2013-06-16 01:49:00,
2013-06-15 18:54:00,58.7,51.9,29.91,East,96,0.0,6.0,78,0.00,,,0.00,LWC V2.00 B2112,2013-06-16 01:54:00,
2013-06-15 18:59:00,58.9,52.0,29.91,NNE,23,2.0,3.0,78,0.00,,,0.00,LWC V2.00 B2112,2013-06-16 01:59:00,
2013-06-15 19:04:00,58.3,51.5,29.92,ESE,110,3.0,3.0,78,0.00,,,0.00,LWC V2.00 B2112,2013-06-16 02:04:00,
2013-06-15 19:09:00,57.5,51.0,29.92,NNW,337,1.0,1.0,79,0.00,,,0.00,LWC V2.00 B2112,2013-06-16 02:09:00,
2013-06-15 19:14:00,57.0,50.9,29.92,NNW,333,1.0,1.0,80,0.00,,,0.00,LWC V2.00 B2112,2013-06-16 02:14:00,
2013-06-15 19:19:00,56.7,50.6,29.92,WNW,290,0.0,1.0,80,0.00,,,0.00,LWC V2.00 B2112,2013-06-16 02:19:00,
2013-06-15 19:24:00,56.1,50.3,29.92,SSE,156,0.0,5.0,81,0.00,,,0.00,LWC V2.00 B2112,2013-06-16 02:24:00,
2013-06-15 19:29:00,55.7,50.3,29.92,East,83,0.0,1.0,82,0.00,,,0.00,LWC V2.00 B2112,2013-06-16 02:29:00,
2013-06-15 19:35:00,55.5,50.4,29.92,NE,53,1.0,6.0,83,0.00,,,0.00,LWC V2.00 B2112,2013-06-16 02:35:00,
2013-06-15 19:40:00,55.2,50.1,29.92,East,92,1.0,2.0,83,0.00,,,0.00,LWC V2.00 B2112,2013-06-16 02:40:00,
2013-06-15 19:45:00,54.9,50.2,29.92,WSW,240,0.0,2.0,84,0.00,,,0.00,LWC V2.00 B2112,2013-06-16 02:45:00,
2013-06-15 19:50:00,54.6,49.9,29.92,SE,130,0.0,1.0,84,0.00,,,0.00,LWC V2.00 B2112,2013-06-16 02:50:00,
2013-06-15 19:55:00,54.4,49.7,29.92,SE,142,1.0,2.0,84,0.00,,,0.00,LWC V2.00 B2112,2013-06-16 02:55:00,
2013-06-15 20:00:00,54.2,49.8,29.92,NNW,339,5.0,5.0,85,0.00,,,0.00,LWC V2.00 B2112,2013-06-16 03:00:00,
2013-06-15 20:05:00,54.0,49.6,29.92,NW,324,1.0,7.0,85,0.00,,,0.00,LWC V2.00 B2112,2013-06-16 03:05:00,
2013-06-15 20:10:00,53.7,49.3,29.92,SE,134,0.0,2.0,85,0.00,,,0.00,LWC V2.00 B2112,2013-06-16 03:10:00,
2013-06-15 20:15:00,53.5,49.1,29.92,SW,219,2.0,4.0,85,0.00,,,0.00,LWC V2.00 B2112,2013-06-16 03:15:00,
2013-06-15 20:20:00,53.4,49.3,29.92,SE,142,1.0,6.0,86,0.00,,,0.00,LWC V2.00 B2112,2013-06-16 03:20:00,
2013-06-15 20:25:00,53.2,49.1,29.92,North,350,0.0,3.0,86,0.00,,,0.00,LWC V2.00 B2112,2013-06-16 03:25:00,
2013-06-15 20:30:00,53.1,49.0,29.93,NNW,332,5.0,5.0,86,0.00,,,0.00,LWC V2.00 B2112,2013-06-16 03:30:00,
2013-06-15 20:35:00,52.9,48.8,29.93,NNE,16,1.0,3.0,86,0.00,,,0.00,LWC V2.00 B2112,2013-06-16 03:35:00,
2013-06-15 20:40:00,52.9,49.1,29.93,WSW,249,2.0,7.0,87,0.00,,,0.00,LWC V2.00 B2112,2013-06-16 03:40:00,
2013-06-15 20:45:00,52.8,49.0,29.93,SW,229,0.0,1.0,87,0.00,,,0.00,LWC V2.00 B2112,2013-06-16 03:45:00,
2013-06-15 20:50:00,52.8,49.0,29.94,West,271,1.0,3.0,87,0.00,,,0.00,LWC V2.00 B2112,2013-06-16 03:50:00,
2013-06-15 20:55:00,52.7,48.9,29.94,East,91,1.0,5.0,87,0.00,,,0.00,LWC V2.00 B2112,2013-06-16 03:55:00,
2013-06-15 21:00:00,52.7,48.9,29.94,WNW,295,0.0,1.0,87,0.00,,,0.00,LWC V2.00 B2112,2013-06-16 04:00:00,
2013-06-15 21:01:00,52.7,48.9,29.94,East,92,1.0,3.0,87,0.00,,,0.00,LWC V2.00 B2112,2013-06-16 04:01:00,
2013-06-15 21:06:00,52.7,48.9,29.94,ESE,110,0.0,2.0,87,0.00,,,0.00,LWC V2.00 B2112,2013-06-16 04:06:00,
2013-06-15 21:11:00,52.7,48.9,29.94,SW,229,1.0,1.0,87,0.00,,,0.00,LWC V2.00 B2112,2013-06-16 04:11:00,
2013-06-15 21:16:00,52.6,48.8,29.94,ESE,104,0.0,1.0,87,0.00,,,0.00,LWC V2.00 B2112,2013-06-16 04:16:00,
2013-06-15 21:21:00,52.6,48.8,29.94,East,95,1.0,4.0,87,0.00,,,0.00,LWC V2.00 B2112,2013-06-16 04:21:00,
2013-06-15 21:26:00,52.5,48.7,29.95,South,181,0.0,4.0,87,0.00,,,0.00,LWC V2.00 B2112,2013-06-16 04:26:00,
2013-06-15 21:31:00,52.5,48.7,29.94,ESE,108,2.0,6.0,87,0.00,,,0.00,LWC V2.00 B2112,2013-06-16 04:31:00,
2013-06-15 21:36:00,52.4,48.6,29.95,NNE,32,0.0,2.0,87,0.00,,,0.00,LWC V2.00 B2112,2013-06-16 04:36:00,
2013-06-15 21:41:00,52.3,48.5,29.95,ESE,106,1.0,2.0,87,0.00,,,0.00,LWC V2.00 B2112,2013-06-16 04:41:00,
2013-06-15 21:46:00,52.3,48.9,29.95,East,86,0.0,2.0,88,0.00,,,0.00,LWC V2.00 B2112,2013-06-16 04:46:00,
2013-06-15 21:51:00,52.2,48.8,29.96,East,91,1.0,1.0,88,0.00,,,0.00,LWC V2.00 B2112,2013-06-16 04:51:00,
2013-06-15 21:56:00,52.2,48.8,29.96,SSW,200,2.0,3.0,88,0.00,,,0.00,LWC V2.00 B2112,2013-06-16 04:56:00,
2013-06-15 22:01:00,52.1,48.7,29.96,NW,304,0.0,1.0,88,0.00,,,0.00,LWC V2.00 B2112,2013-06-16 05:01:00,
2013-06-15 22:06:00,52.1,48.7,29.96,SW,236,1.0,3.0,88,0.00,,,0.00,LWC V2.00 B2112,2013-06-16 05:06:00,
2013-06-15 22:11:00,52.0,48.6,29.96,SSW,201,2.0,5.0,88,0.00,,,0.00,LWC V2.00 B2112,2013-06-16 05:11:00,
2013-06-15 22:16:00,52.0,48.6,29.97,NNW,332,1.0,2.0,88,0.00,,,0.00,LWC V2.00 B2112,2013-06-16 05:16:00,
2013-06-15 22:21:00,52.0,48.6,29.97,SE,134,1.0,1.0,88,0.00,,,0.00,LWC V2.00 B2112,2013-06-16 05:21:00,
2013-06-15 22:26:00,52.0,48.6,29.97,NE,44,0.0,1.0,88,0.00,,,0.00,LWC V2.00 B2112,2013-06-16 05:26:00,
2013-06-15 22:31:00,52.0,48.6,29.97,WSW,245,1.0,7.0,88,0.00,,,0.00,LWC V2.00 B2112,2013-06-16 05:31:00,
2013-06-15 22:36:00,52.0,48.6,29.97,ESE,117,0.0,1.0,88,0.00,,,0.00,LWC V2.00 B2112,2013-06-16 05:36:00,
2013-06-15 22:41:00,52.0,48.6,29.97,ESE,107,1.0,2.0,88,0.00,,,0.00,LWC V2.00 B2112,2013-06-16 05:41:00,
2013-06-15 22:46:00,52.0,48.6,29.97,East,93,1.0,1.0,88,0.00,,,0.00,LWC V2.00 B2112,2013-06-16 05:46:00,
2013-06-15 22:51:00,52.0,48.6,29.97,ESE,123,0.0,0.0,88,0.00,,,0.00,LWC V2.00 B2112,2013-06-16 05:51:00,
2013-06-15 22:52:00,52.0,48.6,29.97,ESE,104,1.0,1.0,88,0.00,,,0.00,LWC V2.00 B2112,2013-06-16 05:52:00,
2013-06-15 22:57:00,52.0,48.6,29.97,ESE,102,0.0,4.0,88,0.00,,,0.00,LWC V2.00 B2112,2013-06-16 05:57:00,
2013-06-15 23:02:00,52.0,48.6,29.97,West,262,2.0,3.0,88,0.00,,,0.00,LWC V2.00 B2112,2013-06-16 06:02:00,
2013-06-15 23:07:00,51.9,48.5,29.97,ESE,105,4.0,4.0,88,0.00,,,0.00,LWC V2.00 B2112,2013-06-16 06:07:00,
2013-06-15 23:12:00,51.9,48.5,29.97,East,93,1.0,1.0,88,0.00,,,0.00,LWC V2.00 B2112,2013-06-16 06:12:00,
2013-06-15 23:17:00,51.9,48.5,29.97,NNW,328,1.0,2.0,88,0.00,,,0.00,LWC V2.00 B2112,2013-06-16 06:17:00,
2013-06-15 23:22:00,51.9,48.5,29.97,East,81,0.0,4.0,88,0.00,,,0.00,LWC V2.00 B2112,2013-06-16 06:22:00,
2013-06-15 23:27:00,51.8,48.4,29.98,NW,322,1.0,2.0,88,0.00,,,0.00,LWC V2.00 B2112,2013-06-16 06:27:00,
2013-06-15 23:32:00,51.8,48.4,29.97,ESE,104,2.0,3.0,88,0.00,,,0.00,LWC V2.00 B2112,2013-06-16 06:32:00,
2013-06-15 23:37:00,51.8,48.4,29.97,WSW,246,0.0,2.0,88,0.00,,,0.00,LWC V2.00 B2112,2013-06-16 06:37:00,
2013-06-15 23:42:00,51.7,48.3,29.98,ESE,108,2.0,3.0,88,0.00,,,0.00,LWC V2.00 B2112,2013-06-16 06:42:00,
2013-06-15 23:47:00,51.7,48.3,29.97,West,280,1.0,5.0,88,0.00,,,0.00,LWC V2.00 B2112,2013-06-16 06:47:00,
2013-06-15 23:52:00,51.6,48.2,29.97,West,266,1.0,1.0,88,0.00,,,0.00,LWC V2.00 B2112,2013-06-16 06:52:00,
2013-06-15 23:57:00,51.6,48.2,29.97,ESE,111,3.0,3.0,88,0.00,,,0.00,LWC V2.00 B2112,2013-06-16 06:57:00,